Aérodrome :
LOGIN :

S'inscrire | Disclaimer

   EN    FR    IT 

 










Légende :    VFR   VFR Marginal   IFR   IFR Intensif   IFR Très Intensif
Visi : 
Plafond : 
>= 8 km
>= 3000ft
5 à 8 km
1000 à 3000 ft
1500m à 5 km
500 à 1000 ft
800 à 1500m
200 à 500 ft
< 800m
< 200 ft
Symboles :   Orages  Brouillard  Fortes neiges  Fortes précipitations  Vent > 20 kt
SIGMETs :   Divers  Orages  Givrage  Turbulence  Onde Orograph.  Cendres Volcan.






- Altitude de l'aérodrome : 28 ft
- Code IATA : OLA


ENOL - Ørland

DERNIER METAR :
  • 221350Z 28021KT 9999 FEW012 SCT028 04/M01 Q1026 NOSIG

METARs EXPIRÉS :
  • 221320Z 28019KT 9999 VCSH FEW012CB SCT050 04/M00 Q1026 TEMPO 28025G35KT 4000 SHRASNGS BKN012CB
  • 221250Z 28021KT 9999 VCSH FEW012CB SCT050 03/M01 Q1026 TEMPO 28025G35KT 4000 SHRASNGS BKN012CB
  • 221220Z 29020KT 9999 VCSH FEW012CB SCT030 BKN050 03/01 Q1026 TEMPO 28025G35KT 4000 SHRASNGS BKN012CB
  • 221150Z 28022KT 9999 VCSH FEW012CB SCT025 BKN045 03/00 Q1026 TEMPO 28025G35KT 4000 SHRASNGS BKN012CB
  • 221120Z 28023KT 9999 VCSH FEW008 FEW015CB SCT030 03/00 Q1026 TEMPO 28025G35KT 4000 SHRASNGS BKN012CB

TAF TAF ENOL
Valide du 22 à 12h jusqu'au 23 à 12h UTC


2212/2312 27020KT 9999 FEW012 BKN025
TEMPO 2212/2214 28025G35KT 4000 SHRASN BKN012CB
BECMG 2218/2220 20008KT
TEMPO 2221/2312 3000 RADZ BKN012
BECMG 2303/2306 25030G40KT



MET'MAP, la Météo Aéronautique d'un coup d'oeil ! - Copyright ORBIFLY Décembre 2007 - Disclaimer

ORBIFLY MET'MAP TEAM :

Programmation & Développement : Alexandra Zaïnal
Sur une idée originale de : Baudouin d'Aumeries
Assistance à la programmation : Marc-Olivier Méhu
Soutien technique & logistique : Manuel Goepfert

Contact : metmap@orbifly.com




SOURCES & CREDITS :

   NOAA